Ora Direzione Vento Velocita' Vento Media Vento Raffica Max. Temperatura Wind Chill Pioggia Pressione
10:50:33.0155 °(SSE)2.6 Kts5.2 Kts16.5 Kts15.3 °C13.7 °C0.0 mm997.7 Hpa
10:29:46.0207 °(SSW)8.7 Kts7.8 Kts16.5 Kts15.2 °C11.5 °C0.0 mm997.7 Hpa
10:10:15.0176 °(S)7.8 Kts6.1 Kts15.6 Kts14.9 °C12.6 °C0.0 mm998.0 Hpa
09:50:20.0150 °(SSE)3.5 Kts5.2 Kts14.8 Kts14.7 °C13.0 °C0.0 mm998.3 Hpa
09:30:21.0155 °(SSE)3.5 Kts4.3 Kts13.0 Kts14.4 °C13.4 °C0.0 mm998.5 Hpa
09:09:47.0199 °(SSW)8.7 Kts2.6 Kts13.0 Kts14.1 °C14.1 °C0.0 mm998.5 Hpa
08:50:19.0228 °(SW)6.1 Kts2.6 Kts13.0 Kts13.9 °C13.9 °C0.0 mm998.5 Hpa
08:29:53.0240 °(WSW)3.5 Kts3.5 Kts12.2 Kts14.0 °C14.0 °C0.0 mm998.5 Hpa
08:09:29.0160 °(SSE)3.5 Kts3.5 Kts12.2 Kts14.1 °C14.1 °C0.0 mm998.5 Hpa
07:50:19.0118 °(ESE)1.7 Kts0.9 Kts6.1 Kts13.6 °C13.6 °C0.0 mm998.5 Hpa
07:30:00.0219 °(SW)0.9 Kts1.7 Kts6.1 Kts12.1 °C12.1 °C0.0 mm998.4 Hpa
07:09:46.0167 °(SSE)1.7 Kts0.0 Kts6.1 Kts11.3 °C-17.8 °C0.0 mm998.4 Hpa
06:49:29.00 °(N)0.0 Kts0.0 Kts6.1 Kts0.0 °C0.0 °C0.0 mm998.5 Hpa
06:30:30.00 °(N)0.0 Kts0.0 Kts6.1 Kts0.0 °C0.0 °C0.0 mm998.6 Hpa
06:10:18.00 °(N)0.0 Kts0.0 Kts6.1 Kts0.0 °C0.0 °C0.0 mm998.7 Hpa
05:50:09.00 °(N)0.0 Kts0.0 Kts6.1 Kts0.0 °C0.0 °C0.0 mm998.9 Hpa
05:29:59.00 °(N)0.0 Kts0.0 Kts6.1 Kts0.0 °C0.0 °C0.0 mm999.0 Hpa
05:09:58.00 °(N)0.0 Kts0.0 Kts6.1 Kts0.0 °C0.0 °C0.0 mm998.9 Hpa
04:49:53.00 °(N)0.0 Kts0.0 Kts6.1 Kts0.0 °C0.0 °C0.0 mm999.2 Hpa
04:29:40.00 °(N)0.0 Kts0.0 Kts6.1 Kts0.0 °C0.0 °C0.0 mm999.6 Hpa